Time;durP1;ratioP1;P1;durP2;ratioP2;P2;SDS_P1;SDS_P2;PMS_P1;PMS_P2;Temp;Humidity;BMP_temperature;BMP_pressure;BME280_temperature;BME280_humidity;BME280_pressure;Samples;Min_cycle;Max_cycle;Signal;HPM_P1;HPM_P2
2023/10/14 00:02:05;;;;;;;0.00;0.00;;;;;;;23.17;100.00;99953.34;10458471;28;20064;-82
2023/10/14 00:07:11;;;;;;;0.00;0.00;;;;;;;23.65;100.00;99978.50;10449865;28;20041;-84
2023/10/14 00:12:14;;;;;;;0.00;0.00;;;;;;;24.53;100.00;99963.19;10450917;28;20041;-85
2023/10/14 00:17:18;;;;;;;0.32;0.32;;;;;;;23.63;100.00;99988.25;10431236;28;20522;-84
2023/10/14 00:22:20;;;;;;;0.00;0.00;;;;;;;23.83;100.00;100004.91;10453619;28;20053;-84
2023/10/14 00:27:23;;;;;;;0.00;0.00;;;;;;;23.37;100.00;100013.84;10457941;28;20087;-84
2023/10/14 00:32:25;;;;;;;0.00;0.00;;;;;;;23.39;100.00;100027.78;10441316;28;20148;-84
2023/10/14 00:37:27;;;;;;;0.47;0.00;;;;;;;23.47;100.00;100030.06;10457639;28;20451;-85
2023/10/14 00:42:31;;;;;;;0.00;0.00;;;;;;;23.44;100.00;100046.84;10459067;28;20047;-84
2023/10/14 00:47:33;;;;;;;0.00;0.00;;;;;;;24.94;100.00;100042.03;10457797;28;20458;-84
2023/10/14 00:52:35;;;;;;;0.00;0.00;;;;;;;24.28;100.00;100053.81;10458129;28;20044;-86
2023/10/14 00:57:38;;;;;;;0.00;0.00;;;;;;;24.28;100.00;100053.81;10445313;28;20048;-85
2023/10/14 01:02:42;;;;;;;0.00;0.00;;;;;;;24.44;100.00;100037.34;10440858;28;20495;-83
2023/10/14 01:07:44;;;;;;;0.00;0.00;;;;;;;23.52;100.00;100066.69;10456719;28;20047;-82
2023/10/14 01:12:53;;;;;;;0.25;0.10;;;;;;;23.21;100.00;100086.34;10457151;28;20060;-83
2023/10/14 01:18:05;;;;;;;0.08;0.08;;;;;;;23.05;100.00;100102.66;10457862;28;20037;-83
2023/10/14 01:23:08;;;;;;;0.00;0.00;;;;;;;23.05;100.00;100118.44;10456717;28;20045;-82
2023/10/14 01:28:14;;;;;;;0.10;0.08;;;;;;;22.18;100.00;100126.81;10436164;28;20049;-80
2023/10/14 01:33:20;;;;;;;0.00;0.00;;;;;;;22.63;100.00;100133.16;10455311;28;20389;-81
2023/10/14 01:38:24;;;;;;;0.00;0.00;;;;;;;22.90;100.00;100148.78;10454989;28;20091;-81
2023/10/14 01:43:30;;;;;;;0.00;0.00;;;;;;;23.30;100.00;100159.56;10455215;28;20065;-81
2023/10/14 01:48:32;;;;;;;0.00;0.00;;;;;;;23.14;100.00;100165.38;10429741;28;20480;-81
2023/10/14 01:53:38;;;;;;;0.00;0.00;;;;;;;22.90;100.00;100176.78;10453919;28;20049;-81
2023/10/14 01:58:41;;;;;;;0.55;0.10;;;;;;;22.74;100.00;100185.25;10436843;28;20052;-81
2023/10/14 02:03:46;;;;;;;0.10;0.03;;;;;;;22.29;100.00;100204.31;10450806;28;20504;-81
2023/10/14 02:08:53;;;;;;;0.10;0.10;;;;;;;22.04;100.00;100226.09;10452761;28;20044;-81
2023/10/14 02:13:55;;;;;;;0.00;0.00;;;;;;;22.10;100.00;100239.00;10450535;28;20523;-81
2023/10/14 02:24:18;;;;;;;0.00;0.00;;;;;;;21.92;100.00;100263.22;10432787;28;20049;-83
2023/10/14 02:29:23;;;;;;;0.00;0.00;;;;;;;21.89;100.00;100276.41;10443531;28;20071;-82
2023/10/14 02:34:25;;;;;;;1.27;0.10;;;;;;;21.58;100.00;100290.44;10452771;28;20526;-80
2023/10/14 02:39:27;;;;;;;0.00;0.00;;;;;;;21.82;100.00;100308.06;10452945;28;20080;-81
2023/10/14 02:44:33;;;;;;;0.20;0.10;;;;;;;21.84;100.00;100319.38;10460522;28;20045;-82
2023/10/14 02:49:42;;;;;;;0.00;0.00;;;;;;;21.15;100.00;100337.91;10443221;28;20396;-80
2023/10/14 02:54:54;;;;;;;0.03;0.03;;;;;;;21.36;100.00;100344.31;10429071;28;20049;-81
2023/10/14 02:59:56;;;;;;;0.00;0.00;;;;;;;21.89;100.00;100357.72;10459811;28;20044;-81
2023/10/14 03:15:30;;;;;;;5.05;1.40;;;;;;;20.84;100.00;100412.03;10457801;28;20056;-80
2023/10/14 03:20:36;;;;;;;0.00;0.00;;;;;;;21.23;100.00;100424.13;10457384;28;20052;-81
2023/10/14 03:25:39;;;;;;;0.55;0.10;;;;;;;20.85;100.00;100437.31;10453247;28;20098;-81
2023/10/14 03:30:45;;;;;;;0.70;0.10;;;;;;;20.92;100.00;100448.50;10456163;28;20045;-81
2023/10/14 03:36:05;;;;;;;0.10;0.10;;;;;;;21.03;100.00;100470.03;10456211;28;20073;-82
2023/10/14 03:41:18;;;;;;;0.08;0.03;;;;;;;20.88;100.00;100476.53;10454536;28;20040;-81
2023/10/14 03:46:31;;;;;;;0.10;0.00;;;;;;;20.49;100.00;100488.72;10455669;28;20969;-81
2023/10/14 03:51:35;;;;;;;0.15;0.15;;;;;;;20.76;100.00;100496.00;10448356;28;20041;-82
2023/10/14 03:56:43;;;;;;;0.60;0.47;;;;;;;20.38;100.00;100509.88;10434505;28;20037;-81
2023/10/14 04:01:45;;;;;;;1.48;0.77;;;;;;;20.60;100.00;100518.97;10450287;28;20052;-81
2023/10/14 04:17:31;;;;;;;0.00;0.00;;;;;;;20.40;100.00;100549.94;10452184;28;20163;-81
2023/10/14 04:22:38;;;;;;;0.25;0.10;;;;;;;20.13;100.00;100567.94;10453599;28;20468;-82
2023/10/14 04:27:45;;;;;;;0.00;0.00;;;;;;;20.52;100.00;100573.25;10434431;28;20045;-81
2023/10/14 04:38:39;;;;;;;0.80;0.30;;;;;;;20.26;100.00;100582.50;10443691;28;20025;-81
2023/10/14 04:48:58;;;;;;;0.00;0.00;;;;;;;20.39;100.00;100611.00;10454308;28;20044;-82
2023/10/14 04:54:00;;;;;;;0.10;0.10;;;;;;;20.13;100.00;100618.47;10437452;28;20752;-81
2023/10/14 04:59:05;;;;;;;0.00;0.00;;;;;;;19.99;100.00;100619.63;10450811;28;20172;-80
2023/10/14 05:04:08;;;;;;;0.35;0.10;;;;;;;20.16;100.00;100638.47;10444557;28;20488;-80
2023/10/14 05:09:25;;;;;;;0.00;0.00;;;;;;;19.90;100.00;100645.03;10433725;28;20049;-81
2023/10/14 05:14:34;;;;;;;1.55;0.22;;;;;;;20.37;100.00;100654.66;10433858;28;20140;-82
2023/10/14 05:19:41;;;;;;;0.00;0.00;;;;;;;20.03;100.00;100665.72;10431627;28;20486;-81
2023/10/14 05:24:49;;;;;;;0.00;0.00;;;;;;;20.19;100.00;100669.81;10449347;28;20055;-81
2023/10/14 05:29:52;;;;;;;0.00;0.00;;;;;;;20.72;100.00;100695.00;10434495;28;20550;-81
2023/10/14 05:34:54;;;;;;;0.38;0.38;;;;;;;20.67;100.00;100709.91;10443622;28;20041;-81
2023/10/14 05:39:56;;;;;;;0.00;0.00;;;;;;;20.42;100.00;100723.47;10448822;28;20055;-81
2023/10/14 05:44:58;;;;;;;0.20;0.00;;;;;;;21.05;100.00;100722.28;10450102;28;20045;-81
2023/10/14 05:50:00;;;;;;;0.55;0.22;;;;;;;21.01;100.00;100743.34;10433925;28;20045;-81
2023/10/14 05:55:05;;;;;;;0.00;0.00;;;;;;;21.03;100.00;100752.03;10450890;28;20127;-81
2023/10/14 06:00:42;;;;;;;1.17;0.20;;;;;;;21.12;100.00;100761.47;10443088;28;20095;-80
2023/10/14 06:05:37;;;;;;;0.00;0.00;;;;;;;21.12;100.00;100779.78;10447748;28;20055;-81
2023/10/14 06:10:41;;;;;;;0.00;0.00;;;;;;;20.49;100.00;100782.66;10444750;28;20041;-82
2023/10/14 06:15:44;;;;;;;0.00;0.00;;;;;;;21.15;100.00;100795.47;10448185;28;20044;-81
2023/10/14 06:20:46;;;;;;;0.10;0.10;;;;;;;20.95;100.00;100806.31;10425187;28;20507;-81
2023/10/14 06:25:48;;;;;;;0.00;0.00;;;;;;;21.14;100.00;100802.44;10425344;28;20469;-80
2023/10/14 06:30:50;;;;;;;0.00;0.00;;;;;;;20.42;100.00;100818.53;10438429;28;20124;-80
2023/10/14 06:35:53;;;;;;;0.25;0.10;;;;;;;20.75;100.00;100831.09;10447696;28;20048;-80
2023/10/14 06:40:55;;;;;;;0.00;0.00;;;;;;;20.74;100.00;100834.59;10442129;28;20045;-79
2023/10/14 06:45:56;;;;;;;0.03;0.03;;;;;;;20.01;100.00;100861.00;10418873;28;20053;-81
2023/10/14 06:50:59;;;;;;;0.00;0.00;;;;;;;20.52;100.00;100866.34;10443197;28;20041;-81
2023/10/14 06:56:01;;;;;;;0.00;0.00;;;;;;;20.35;100.00;100877.06;10441747;28;20390;-81
2023/10/14 07:01:05;;;;;;;0.20;0.20;;;;;;;20.27;100.00;100887.66;10435267;28;20061;-81
2023/10/14 07:06:09;;;;;;;0.10;0.10;;;;;;;20.92;100.00;100891.03;10431594;28;20042;-81
2023/10/14 07:11:11;;;;;;;0.03;0.03;;;;;;;21.73;100.00;100893.00;10433561;28;20049;-80
2023/10/14 07:16:13;;;;;;;0.00;0.00;;;;;;;22.00;100.00;100909.06;10446187;28;20099;-80
2023/10/14 07:21:16;;;;;;;0.00;0.00;;;;;;;22.05;100.00;100922.06;10446630;28;20064;-81
2023/10/14 07:26:17;;;;;;;0.00;0.00;;;;;;;21.97;100.00;100935.34;10449894;28;20427;-80
2023/10/14 07:31:20;;;;;;;0.00;0.00;;;;;;;21.77;100.00;100928.78;10452483;28;20073;-80
2023/10/14 07:36:22;;;;;;;0.10;0.10;;;;;;;22.52;100.00;100945.56;10430138;28;20102;-81
2023/10/14 07:41:26;;;;;;;0.00;0.00;;;;;;;22.20;100.00;100947.97;10446743;28;20049;-80
2023/10/14 07:46:28;;;;;;;0.05;0.05;;;;;;;23.31;100.00;100962.91;10454219;28;20475;-81
2023/10/14 07:51:30;;;;;;;0.00;0.00;;;;;;;23.37;100.00;100972.41;10453788;28;20479;-81
2023/10/14 07:56:32;;;;;;;0.63;0.38;;;;;;;23.60;100.00;100971.78;10443658;28;20049;-80
2023/10/14 08:01:38;;;;;;;0.57;0.57;;;;;;;22.82;100.00;100989.47;10452827;28;20049;-81
2023/10/14 08:06:41;;;;;;;0.00;0.00;;;;;;;22.42;100.00;100989.53;10454538;28;20037;-81
2023/10/14 08:11:43;;;;;;;0.05;0.00;;;;;;;22.65;100.00;100999.53;10435156;28;20053;-80
2023/10/14 08:16:45;;;;;;;0.77;0.20;;;;;;;22.01;100.00;100997.34;10444859;28;20052;-80
2023/10/14 08:21:50;;;;;;;0.00;0.00;;;;;;;23.27;100.00;101005.97;10452341;28;20040;-80
2023/10/14 08:26:53;;;;;;;0.00;0.00;;;;;;;22.17;100.00;101017.13;10434729;28;20064;-80
2023/10/14 08:31:55;;;;;;;0.00;0.00;;;;;;;22.85;100.00;101019.19;10434680;28;20044;-82
2023/10/14 08:36:57;;;;;;;0.10;0.10;;;;;;;22.96;100.00;101023.28;10451194;28;20049;-81
2023/10/14 08:42:04;;;;;;;0.00;0.00;;;;;;;22.83;100.00;101040.25;10451811;28;20566;-82
2023/10/14 08:47:13;;;;;;;0.47;0.47;;;;;;;22.44;100.00;101042.84;10448508;28;20492;-81
2023/10/14 08:52:18;;;;;;;0.43;0.13;;;;;;;23.17;100.00;101046.47;10433658;28;20148;-81
2023/10/14 08:57:22;;;;;;;0.13;0.13;;;;;;;23.69;100.00;101054.81;10449247;28;20156;-80
2023/10/14 09:02:25;;;;;;;0.00;0.00;;;;;;;23.40;100.00;101053.78;10420569;28;20053;-80
2023/10/14 09:07:27;;;;;;;0.00;0.00;;;;;;;23.16;100.00;101065.75;10424653;28;20045;-80
2023/10/14 09:12:29;;;;;;;2.20;0.57;;;;;;;23.49;100.00;101065.88;10447233;28;20053;-81
2023/10/14 09:17:31;;;;;;;0.00;0.00;;;;;;;23.48;100.00;101077.28;10442615;28;20484;-81
2023/10/14 09:22:33;;;;;;;8.30;0.10;;;;;;;23.01;100.00;101088.88;10452745;28;20070;-81
2023/10/14 09:27:37;;;;;;;1.73;0.73;;;;;;;23.68;100.00;101077.63;10442736;28;20048;-82
2023/10/14 09:32:39;;;;;;;0.63;0.22;;;;;;;22.71;100.00;101095.69;10446640;28;20060;-81
2023/10/14 09:37:41;;;;;;;0.40;0.40;;;;;;;23.87;100.00;101096.41;10445127;28;20459;-82
2023/10/14 09:42:44;;;;;;;1.10;0.57;;;;;;;22.92;100.00;101100.47;10449586;28;20516;-80
2023/10/14 09:47:47;;;;;;;0.10;0.00;;;;;;;23.57;100.00;101103.31;10448989;28;20045;-81
2023/10/14 09:52:52;;;;;;;0.47;0.45;;;;;;;23.93;100.00;101095.44;10418874;28;20421;-81
2023/10/14 09:57:56;;;;;;;0.43;0.20;;;;;;;23.56;100.00;101104.25;10442888;28;20116;-81
2023/10/14 10:02:58;;;;;;;1.48;0.10;;;;;;;23.22;100.00;101102.44;10440819;28;20071;-83
2023/10/14 10:08:19;;;;;;;0.00;0.00;;;;;;;24.27;100.00;101105.03;10442684;28;20049;-80
2023/10/14 10:13:23;;;;;;;0.22;0.22;;;;;;;22.91;100.00;101113.63;10435103;28;20127;-80
2023/10/14 10:18:48;;;;;;;0.98;0.55;;;;;;;23.03;100.00;101121.25;10445580;28;20516;-82
2023/10/14 10:23:56;;;;;;;0.32;0.32;;;;;;;23.94;100.00;101112.91;10429514;28;20041;-83
2023/10/14 10:29:23;;;;;;;0.22;0.15;;;;;;;23.44;100.00;101124.69;10444412;28;20138;-81
2023/10/14 10:34:25;;;;;;;0.00;0.00;;;;;;;23.94;100.00;101122.59;10447318;28;20045;-82
2023/10/14 10:39:27;;;;;;;0.00;0.00;;;;;;;24.46;100.00;101131.69;10437318;28;20041;-79
2023/10/14 10:44:33;;;;;;;0.05;0.05;;;;;;;24.73;97.39;101117.78;10448240;28;20484;-80
2023/10/14 10:49:56;;;;;;;0.00;0.00;;;;;;;23.81;100.00;101137.81;10431751;28;20048;-80
2023/10/14 10:54:58;;;;;;;0.35;0.20;;;;;;;23.53;99.83;101139.34;10438868;28;20053;-83
2023/10/14 11:00:01;;;;;;;0.32;0.30;;;;;;;22.71;100.00;101135.94;10448095;28;20131;-82
2023/10/14 11:05:03;;;;;;;0.00;0.00;;;;;;;22.83;100.00;101150.56;10451862;28;20128;-81
2023/10/14 11:10:05;;;;;;;0.08;0.00;;;;;;;23.06;100.00;101149.19;10456270;28;20041;-81
2023/10/14 11:15:18;;;;;;;0.10;0.10;;;;;;;21.87;100.00;101155.84;10439308;28;20041;-80
2023/10/14 11:20:20;;;;;;;0.00;0.00;;;;;;;21.99;96.90;101153.94;10443386;28;20468;-83
2023/10/14 11:25:22;;;;;;;0.00;0.00;;;;;;;22.35;98.18;101156.75;10452893;28;20045;-81
2023/10/14 11:30:28;;;;;;;0.00;0.00;;;;;;;22.80;95.79;101169.00;10436802;28;20524;-81
2023/10/14 11:35:30;;;;;;;0.00;0.00;;;;;;;23.39;97.73;101170.38;10435637;28;20411;-82
2023/10/14 11:40:33;;;;;;;0.00;0.00;;;;;;;24.02;94.98;101168.84;10440766;28;20518;-81
2023/10/14 11:45:36;;;;;;;0.00;0.00;;;;;;;23.52;96.06;101168.31;10449063;28;20045;-82
2023/10/14 11:50:38;;;;;;;0.00;0.00;;;;;;;23.31;91.53;101169.72;10447669;28;20041;-80
2023/10/14 11:55:40;;;;;;;0.00;0.00;;;;;;;23.92;98.11;101168.19;10453415;28;20488;-82
2023/10/14 12:00:41;;;;;;;0.00;0.00;;;;;;;23.84;99.82;101169.31;10448320;28;20034;-83
2023/10/14 12:05:43;;;;;;;0.05;0.00;;;;;;;22.61;93.97;101168.53;10442342;28;20051;-84
2023/10/14 12:10:45;;;;;;;0.00;0.00;;;;;;;22.80;100.00;101175.16;10447918;28;20041;-81
2023/10/14 12:15:47;;;;;;;0.00;0.00;;;;;;;22.24;99.87;101174.44;10454513;28;20044;-81
2023/10/14 12:20:49;;;;;;;0.05;0.05;;;;;;;23.16;98.49;101179.63;10454296;28;20041;-82
2023/10/14 12:25:51;;;;;;;0.00;0.00;;;;;;;23.01;95.89;101182.59;10453967;28;20140;-82
2023/10/14 12:30:56;;;;;;;0.08;0.08;;;;;;;23.51;95.09;101188.50;10432725;28;20048;-81
2023/10/14 12:35:59;;;;;;;0.00;0.00;;;;;;;23.13;93.48;101193.69;10446073;28;20041;-82
2023/10/14 12:41:02;;;;;;;1.20;0.30;;;;;;;24.54;90.67;101190.28;10431475;28;20047;-83
2023/10/14 12:46:19;;;;;;;0.00;0.00;;;;;;;22.70;89.13;101206.88;10434624;28;20607;-81
2023/10/14 12:51:25;;;;;;;0.00;0.00;;;;;;;20.95;97.94;101226.19;10448119;28;20037;-82
2023/10/14 12:56:27;;;;;;;0.22;0.00;;;;;;;21.50;100.00;101245.56;10452826;28;20437;-84
2023/10/14 13:01:33;;;;;;;0.20;0.10;;;;;;;21.52;100.00;101259.50;10450789;28;20037;-82
2023/10/14 13:06:42;;;;;;;0.00;0.00;;;;;;;21.31;98.70;101257.19;10435351;28;20049;-82
2023/10/14 13:11:44;;;;;;;0.00;0.00;;;;;;;20.90;98.83;101260.28;10434504;28;20052;-83
2023/10/14 13:16:46;;;;;;;0.15;0.10;;;;;;;20.42;96.45;101268.59;10432773;28;20044;-83
2023/10/14 13:21:48;;;;;;;0.00;0.00;;;;;;;21.18;97.21;101275.69;10446968;28;20114;-82
2023/10/14 13:26:50;;;;;;;0.00;0.00;;;;;;;21.46;100.00;101280.56;10450467;28;20068;-83
2023/10/14 13:31:52;;;;;;;0.00;0.00;;;;;;;21.23;100.00;101291.34;10450395;28;20037;-84
2023/10/14 13:36:57;;;;;;;4.13;0.25;;;;;;;22.08;96.16;101294.56;10450403;28;20094;-84
2023/10/14 13:42:00;;;;;;;0.00;0.00;;;;;;;21.06;97.88;101312.50;10435981;28;20037;-82
2023/10/14 13:47:04;;;;;;;0.00;0.00;;;;;;;19.66;100.00;101344.94;10449605;28;20044;-83
2023/10/14 13:52:08;;;;;;;0.00;0.00;;;;;;;19.44;100.00;101322.41;10433088;28;20048;-81
2023/10/14 13:57:11;;;;;;;0.00;0.00;;;;;;;19.96;100.00;101324.78;10448666;28;20040;-83
2023/10/14 14:02:13;;;;;;;0.00;0.00;;;;;;;19.78;100.00;101330.06;10431493;28;20053;-82
2023/10/14 14:07:16;;;;;;;0.00;0.00;;;;;;;20.20;100.00;101330.72;10447333;28;20057;-83
2023/10/14 14:12:18;;;;;;;0.00;0.00;;;;;;;20.34;100.00;101324.50;10432001;28;20060;-83
2023/10/14 14:17:24;;;;;;;0.00;0.00;;;;;;;20.33;100.00;101333.22;10447753;28;20419;-83
2023/10/14 14:22:26;;;;;;;0.20;0.10;;;;;;;21.01;100.00;101340.50;10446872;28;20041;-82
2023/10/14 14:27:28;;;;;;;0.00;0.00;;;;;;;21.22;100.00;101332.41;10430553;28;20141;-83
2023/10/14 14:32:30;;;;;;;0.00;0.00;;;;;;;20.94;100.00;101344.06;10447517;28;20222;-82
2023/10/14 14:37:32;;;;;;;0.15;0.15;;;;;;;21.79;100.00;101341.31;10455460;28;20500;-82
2023/10/14 14:42:34;;;;;;;0.00;0.00;;;;;;;22.14;100.00;101344.31;10462850;28;20052;-82
2023/10/14 14:47:37;;;;;;;0.00;0.00;;;;;;;20.58;100.00;101353.09;10444490;28;20470;-81
2023/10/14 14:52:41;;;;;;;0.98;0.20;;;;;;;20.53;100.00;101361.88;10460795;28;20059;-82
2023/10/14 14:57:45;;;;;;;0.00;0.00;;;;;;;21.14;100.00;101363.06;10462204;28;20480;-83
2023/10/14 15:02:47;;;;;;;0.03;0.00;;;;;;;20.74;100.00;101359.09;10460654;28;20063;-82
2023/10/14 15:07:49;;;;;;;0.00;0.00;;;;;;;21.17;100.00;101362.16;10454781;28;20080;-84
2023/10/14 15:12:51;;;;;;;0.00;0.00;;;;;;;21.15;100.00;101362.19;10459379;28;20535;-83
2023/10/14 15:17:55;;;;;;;0.00;0.00;;;;;;;21.54;100.00;101362.59;10460025;28;20128;-82
2023/10/14 15:22:59;;;;;;;0.10;0.00;;;;;;;21.78;100.00;101364.94;10459739;28;20087;-82
2023/10/14 15:28:01;;;;;;;0.05;0.00;;;;;;;20.48;100.00;101367.13;10448913;28;20477;-82
2023/10/14 15:33:07;;;;;;;0.10;0.10;;;;;;;21.13;100.00;101358.69;10447736;28;20164;-83
2023/10/14 15:38:13;;;;;;;0.35;0.22;;;;;;;20.53;100.00;101365.34;10445212;28;20041;-83
2023/10/14 15:43:15;;;;;;;0.00;0.00;;;;;;;20.52;100.00;101374.06;10455053;28;20067;-83
2023/10/14 15:48:19;;;;;;;1.00;0.20;;;;;;;20.81;100.00;101380.88;10426264;28;20459;-81
2023/10/14 15:53:21;;;;;;;0.10;0.00;;;;;;;20.96;100.00;101389.47;10448903;28;20224;-83
2023/10/14 15:58:23;;;;;;;0.05;0.03;;;;;;;21.16;100.00;101395.34;10424999;28;20381;-83
2023/10/14 16:03:42;;;;;;;0.00;0.00;;;;;;;20.56;100.00;101401.97;10460897;28;20223;-82
2023/10/14 16:08:44;;;;;;;0.00;0.00;;;;;;;20.95;100.00;101403.44;10446759;28;20045;-82
2023/10/14 16:13:46;;;;;;;0.10;0.10;;;;;;;20.97;100.00;101412.13;10449920;28;20059;-82
2023/10/14 16:18:49;;;;;;;0.00;0.00;;;;;;;20.76;100.00;101412.31;10449660;28;20057;-82
2023/10/14 16:23:51;;;;;;;0.45;0.45;;;;;;;20.85;100.00;101415.75;10447752;28;20397;-84
2023/10/14 16:28:54;;;;;;;0.30;0.28;;;;;;;20.72;100.00;101417.56;10440039;28;20424;-83
2023/10/14 16:33:57;;;;;;;0.00;0.00;;;;;;;20.26;100.00;101430.09;10430497;28;20060;-82
2023/10/14 16:38:59;;;;;;;0.00;0.00;;;;;;;20.37;100.00;101436.97;10443276;28;20036;-82
2023/10/14 16:44:05;;;;;;;0.20;0.00;;;;;;;20.07;100.00;101444.13;10452176;28;20047;-83
2023/10/14 16:49:23;;;;;;;0.00;0.00;;;;;;;19.84;100.00;101458.22;10448440;28;20044;-84
2023/10/14 16:54:27;;;;;;;0.00;0.00;;;;;;;20.07;100.00;101468.56;10441833;28;20063;-82
2023/10/14 16:59:31;;;;;;;0.45;0.45;;;;;;;19.84;100.00;101470.34;10447192;28;20041;-82
2023/10/14 17:04:33;;;;;;;0.00;0.00;;;;;;;19.45;100.00;101486.16;10433908;28;20506;-83
2023/10/14 17:09:35;;;;;;;0.75;0.28;;;;;;;18.77;100.00;101491.34;10450209;28;20076;-84
2023/10/14 17:14:38;;;;;;;0.30;0.10;;;;;;;18.52;100.00;101491.31;10445077;28;20045;-83
2023/10/14 17:19:39;;;;;;;0.10;0.10;;;;;;;18.65;100.00;101508.72;10448377;28;20102;-83
2023/10/14 17:24:41;;;;;;;0.00;0.00;;;;;;;19.00;100.00;101513.16;10446281;28;20447;-83
2023/10/14 17:29:43;;;;;;;1.85;0.10;;;;;;;18.63;100.00;101526.13;10431897;28;20135;-83
2023/10/14 17:34:45;;;;;;;0.00;0.00;;;;;;;19.03;100.00;101531.44;10448100;28;20044;-83
2023/10/14 17:39:52;;;;;;;0.65;0.57;;;;;;;18.45;100.00;101536.50;10426428;28;20135;-83
2023/10/14 17:44:54;;;;;;;0.00;0.00;;;;;;;18.57;100.00;101539.19;10442191;28;20407;-84
2023/10/14 17:49:58;;;;;;;0.00;0.00;;;;;;;18.42;100.00;101536.50;10447083;28;20041;-82
2023/10/14 17:55:10;;;;;;;0.03;0.03;;;;;;;18.30;100.00;101548.63;10431922;28;20041;-83
2023/10/14 18:00:26;;;;;;;0.00;0.00;;;;;;;18.14;100.00;101554.63;10447694;28;20087;-83
2023/10/14 18:05:30;;;;;;;0.00;0.00;;;;;;;18.76;100.00;101547.03;10431217;28;20488;-82
2023/10/14 18:10:33;;;;;;;0.20;0.20;;;;;;;18.16;100.00;101560.75;10445684;28;20048;-82
2023/10/14 18:15:35;;;;;;;0.00;0.00;;;;;;;18.32;100.00;101562.56;10446736;28;20130;-84
2023/10/14 18:20:37;;;;;;;3.60;0.40;;;;;;;17.85;100.00;101565.75;10446904;28;20041;-84
2023/10/14 18:25:40;;;;;;;0.30;0.30;;;;;;;18.14;100.00;101567.66;10443629;28;20116;-82
2023/10/14 18:30:43;;;;;;;0.00;0.00;;;;;;;17.99;100.00;101573.69;10438771;28;20110;-84
2023/10/14 18:35:46;;;;;;;0.10;0.03;;;;;;;17.55;100.00;101582.91;10438224;28;20459;-84
2023/10/14 18:40:48;;;;;;;0.10;0.10;;;;;;;17.28;100.00;101580.09;10443942;28;20415;-82
2023/10/14 18:45:50;;;;;;;0.00;0.00;;;;;;;17.37;100.00;101586.22;10442419;28;20051;-83
2023/10/14 18:50:51;;;;;;;0.00;0.00;;;;;;;17.50;100.00;101589.81;10442282;28;20037;-82
2023/10/14 18:55:53;;;;;;;0.10;0.03;;;;;;;17.32;100.00;101601.81;10438261;28;20041;-82
2023/10/14 19:00:56;;;;;;;0.00;0.00;;;;;;;17.06;100.00;101598.97;10439431;28;20488;-81
2023/10/14 19:05:58;;;;;;;0.00;0.00;;;;;;;17.27;100.00;101606.13;10418848;28;20045;-83
2023/10/14 19:11:04;;;;;;;0.32;0.10;;;;;;;17.19;100.00;101610.38;10442165;28;20179;-82
2023/10/14 19:16:08;;;;;;;0.00;0.00;;;;;;;17.54;100.00;101612.41;10423085;28;20072;-82
2023/10/14 19:21:11;;;;;;;0.03;0.03;;;;;;;17.29;100.00;101614.81;10433479;28;20041;-82
2023/10/14 19:26:13;;;;;;;0.38;0.20;;;;;;;17.17;100.00;101614.69;10432257;28;20095;-82
2023/10/14 19:31:15;;;;;;;1.35;0.08;;;;;;;17.05;100.00;101618.94;10437795;28;20076;-82
2023/10/14 19:36:19;;;;;;;0.00;0.00;;;;;;;17.27;100.00;101619.13;10450160;28;20056;-81
2023/10/14 19:41:20;;;;;;;0.00;0.00;;;;;;;17.08;100.00;101616.38;10450929;28;20055;-81
2023/10/14 19:46:23;;;;;;;0.00;0.00;;;;;;;17.18;100.00;101624.25;10452479;28;20037;-82
2023/10/14 19:51:25;;;;;;;0.00;0.00;;;;;;;17.64;100.00;101627.28;10449285;28;20556;-82
2023/10/14 19:56:27;;;;;;;0.00;0.00;;;;;;;18.17;100.00;101625.94;10418955;28;20037;-82
2023/10/14 20:01:28;;;;;;;0.00;0.00;;;;;;;17.59;100.00;101635.06;10447310;28;20123;-82
2023/10/14 20:06:30;;;;;;;0.00;0.00;;;;;;;17.55;100.00;101629.81;10425180;28;20147;-82
2023/10/14 20:11:32;;;;;;;0.00;0.00;;;;;;;17.62;100.00;101631.59;10440097;28;20489;-82
2023/10/14 20:16:34;;;;;;;0.08;0.00;;;;;;;17.83;100.00;101630.03;10440757;28;20524;-82
2023/10/14 20:21:36;;;;;;;0.25;0.10;;;;;;;17.91;100.00;101638.75;10450603;28;20113;-81
2023/10/14 20:26:40;;;;;;;0.00;0.00;;;;;;;17.49;100.00;101635.84;10451065;28;20483;-82
2023/10/14 20:31:42;;;;;;;0.75;0.10;;;;;;;17.67;100.00;101640.34;10433433;28;20041;-81
2023/10/14 20:36:44;;;;;;;0.00;0.00;;;;;;;17.97;100.00;101638.88;10451329;28;20116;-81
2023/10/14 20:41:46;;;;;;;0.00;0.00;;;;;;;17.52;100.00;101635.84;10450382;28;20992;-82
2023/10/14 20:46:49;;;;;;;0.00;0.00;;;;;;;17.21;100.00;101643.38;10450607;28;20049;-81
2023/10/14 20:51:52;;;;;;;0.00;0.00;;;;;;;17.00;100.00;101641.44;10449450;28;20155;-82
2023/10/14 20:56:54;;;;;;;0.00;0.00;;;;;;;16.81;100.00;101651.59;10450228;28;20077;-82
2023/10/14 21:01:56;;;;;;;0.08;0.08;;;;;;;16.52;100.00;101647.75;10449147;28;20051;-82
2023/10/14 21:06:58;;;;;;;0.05;0.03;;;;;;;16.58;100.00;101647.81;10433122;28;20072;-82
2023/10/14 21:12:00;;;;;;;0.03;0.03;;;;;;;16.88;100.00;101649.06;10432066;28;20052;-82
2023/10/14 21:17:04;;;;;;;0.00;0.00;;;;;;;17.00;100.00;101650.97;10447925;28;20094;-81
2023/10/14 21:22:06;;;;;;;0.00;0.00;;;;;;;16.92;100.00;101643.94;10448873;28;20495;-82
2023/10/14 21:27:10;;;;;;;0.00;0.00;;;;;;;17.09;100.00;101651.94;10440463;28;20045;-82
2023/10/14 21:32:12;;;;;;;0.10;0.10;;;;;;;16.72;100.00;101646.28;10432243;28;20076;-81
2023/10/14 21:37:14;;;;;;;0.00;0.00;;;;;;;17.07;100.00;101648.47;10431620;28;20057;-82
2023/10/14 21:42:17;;;;;;;0.35;0.10;;;;;;;16.80;100.00;101643.78;10449911;28;20041;-81
2023/10/14 21:47:19;;;;;;;0.00;0.00;;;;;;;17.52;100.00;101640.22;10447536;28;20057;-82
2023/10/14 21:52:21;;;;;;;0.00;0.00;;;;;;;17.16;100.00;101631.19;10425928;28;20404;-82
2023/10/14 21:57:24;;;;;;;0.00;0.00;;;;;;;17.37;100.00;101631.41;10431446;28;20057;-81
2023/10/14 22:02:26;;;;;;;0.00;0.00;;;;;;;17.69;100.00;101632.53;10434233;28;20059;-82
2023/10/14 22:07:31;;;;;;;0.00;0.00;;;;;;;17.72;100.00;101633.44;10444237;28;20574;-81
2023/10/14 22:12:33;;;;;;;0.00;0.00;;;;;;;17.03;100.00;101628.44;10444118;28;20528;-81
2023/10/14 22:17:36;;;;;;;0.25;0.10;;;;;;;17.21;100.00;101629.50;10442038;28;20048;-82
2023/10/14 22:22:38;;;;;;;0.10;0.10;;;;;;;16.76;100.00;101628.97;10446866;28;20135;-81
2023/10/14 22:27:40;;;;;;;0.43;0.20;;;;;;;17.04;100.00;101630.19;10429807;28;20060;-82
2023/10/14 22:32:42;;;;;;;0.10;0.10;;;;;;;16.99;100.00;101633.59;10430231;28;20051;-81
2023/10/14 22:37:45;;;;;;;0.25;0.20;;;;;;;16.54;100.00;101640.84;10440163;28;20045;-81
2023/10/14 22:42:49;;;;;;;0.00;0.00;;;;;;;16.69;100.00;101634.94;10446687;28;20086;-81
2023/10/14 22:47:51;;;;;;;0.00;0.00;;;;;;;16.48;100.00;101642.53;10445770;28;20056;-82
2023/10/14 22:52:53;;;;;;;0.20;0.13;;;;;;;16.27;100.00;101683.84;10447067;28;20041;-81
2023/10/14 22:57:55;;;;;;;0.10;0.10;;;;;;;16.09;100.00;101729.47;10453499;28;20471;-81
2023/10/14 23:02:57;;;;;;;0.10;0.10;;;;;;;16.15;100.00;101721.78;10455319;28;20087;-83
2023/10/14 23:07:59;;;;;;;0.00;0.00;;;;;;;16.41;100.00;101723.91;10452236;28;20466;-82
2023/10/14 23:13:04;;;;;;;0.03;0.03;;;;;;;16.30;100.00;101707.25;10448127;28;20094;-81
2023/10/14 23:18:06;;;;;;;0.00;0.00;;;;;;;17.15;100.00;101691.94;10453350;28;20056;-82
2023/10/14 23:23:08;;;;;;;0.00;0.00;;;;;;;17.78;100.00;101669.09;10450769;28;20037;-83
2023/10/14 23:28:10;;;;;;;0.00;0.00;;;;;;;18.00;100.00;101679.72;10436187;28;20799;-82
2023/10/14 23:33:12;;;;;;;0.00;0.00;;;;;;;18.05;100.00;101686.72;10451285;28;20049;-82
2023/10/14 23:38:14;;;;;;;0.00;0.00;;;;;;;17.58;100.00;101656.75;10444336;28;20225;-83